Time;durP1;ratioP1;P1;durP2;ratioP2;P2;SDS_P1;SDS_P2;PMS_P1;PMS_P2;Temp;Humidity;BMP_temperature;BMP_pressure;BME280_temperature;BME280_humidity;BME280_pressure;Samples;Min_cycle;Max_cycle;Signal;HPM_P1;HPM_P2
2022/05/18 00:00:27;;;;;;;12.65;10.05;;;17.90;99.90;;;;;;5048906;28;20053;-70
2022/05/18 00:02:59;;;;;;;13.52;11.15;;;17.90;99.90;;;;;;5049734;28;20080;-69
2022/05/18 00:05:25;;;;;;;13.35;10.27;;;17.90;99.90;;;;;;5049192;28;20383;-70
2022/05/18 00:07:50;;;;;;;12.77;10.20;;;17.90;99.90;;;;;;5044144;28;20167;-69
2022/05/18 00:10:17;;;;;;;10.88;9.80;;;17.80;99.90;;;;;;5048381;28;20398;-69
2022/05/18 00:12:49;;;;;;;21.60;11.27;;;17.80;99.90;;;;;;5049757;28;20747;-69
2022/05/18 00:15:18;;;;;;;13.30;11.85;;;17.80;99.90;;;;;;5050050;28;20045;-70
2022/05/18 00:17:44;;;;;;;15.68;12.00;;;17.80;99.90;;;;;;5030774;28;20064;-69
2022/05/18 00:20:11;;;;;;;21.02;12.52;;;17.70;99.90;;;;;;5049472;28;20052;-69
2022/05/18 00:22:54;;;;;;;16.85;11.90;;;17.60;99.90;;;;;;5049214;28;20118;-70
2022/05/18 00:25:23;;;;;;;16.48;11.57;;;17.60;99.90;;;;;;5047618;28;20041;-69
2022/05/18 00:27:49;;;;;;;14.95;12.13;;;17.50;99.90;;;;;;5048101;28;20064;-69
2022/05/18 00:30:16;;;;;;;16.23;11.20;;;17.40;99.90;;;;;;5049132;28;20041;-70
2022/05/18 00:32:42;;;;;;;19.33;13.27;;;17.30;99.90;;;;;;5049291;28;20163;-68
2022/05/18 00:35:09;;;;;;;17.73;11.43;;;17.20;99.90;;;;;;5048412;28;20122;-69
2022/05/18 00:37:35;;;;;;;11.98;10.73;;;17.10;99.90;;;;;;5048756;28;20048;-69
2022/05/18 00:40:01;;;;;;;15.88;13.93;;;17.10;99.90;;;;;;5049798;28;20041;-69
2022/05/18 00:42:28;;;;;;;15.00;11.70;;;17.10;99.90;;;;;;5040837;28;20128;-69
2022/05/18 00:44:54;;;;;;;14.25;12.60;;;17.00;99.90;;;;;;5048954;28;20466;-69
2022/05/18 00:47:20;;;;;;;19.65;13.40;;;17.10;99.90;;;;;;5048801;28;20418;-69
2022/05/18 00:49:50;;;;;;;19.88;12.82;;;17.00;99.90;;;;;;5029851;28;20052;-69
2022/05/18 00:52:20;;;;;;;21.15;13.05;;;17.00;99.90;;;;;;5049145;28;20044;-69
2022/05/18 00:54:48;;;;;;;17.55;13.10;;;17.00;99.90;;;;;;5048991;28;20045;-69
2022/05/18 00:57:26;;;;;;;14.55;12.00;;;17.00;99.90;;;;;;5048882;28;20124;-69
2022/05/18 00:59:58;;;;;;;17.05;11.52;;;17.00;99.90;;;;;;5048324;28;20048;-69
2022/05/18 01:02:28;;;;;;;16.67;11.25;;;16.90;99.90;;;;;;5049135;28;20120;-69
2022/05/18 01:04:58;;;;;;;16.52;12.40;;;16.80;99.90;;;;;;5047624;28;20499;-69
2022/05/18 01:07:31;;;;;;;14.95;12.57;;;16.80;99.90;;;;;;5048722;28;20399;-69
2022/05/18 01:09:58;;;;;;;14.48;12.27;;;16.80;99.90;;;;;;5048772;28;20060;-69
2022/05/18 01:12:23;;;;;;;16.15;12.45;;;16.80;99.90;;;;;;5048043;28;20048;-69
2022/05/18 01:14:53;;;;;;;14.70;12.40;;;16.80;99.90;;;;;;5046891;28;20044;-69
2022/05/18 01:17:32;;;;;;;17.00;11.98;;;16.80;99.90;;;;;;5048456;28;20092;-69
2022/05/18 01:20:04;;;;;;;14.82;12.07;;;16.70;99.90;;;;;;5048256;28;20445;-70
2022/05/18 01:22:57;;;;;;;16.55;12.43;;;16.70;99.90;;;;;;5047041;28;20091;-69
2022/05/18 01:26:06;;;;;;;14.00;12.52;;;16.60;99.90;;;;;;5027807;28;20071;-69
2022/05/18 01:28:38;;;;;;;15.82;12.68;;;16.60;99.90;;;;;;4987203;28;20053;-69
2022/05/18 01:31:04;;;;;;;21.88;11.82;;;16.60;99.90;;;;;;5042830;28;20099;-69
2022/05/18 01:33:31;;;;;;;17.98;13.13;;;16.60;99.90;;;;;;5046663;28;20056;-69
2022/05/18 01:35:57;;;;;;;18.17;12.15;;;16.60;99.90;;;;;;5045609;28;20052;-69
2022/05/18 01:38:24;;;;;;;18.92;14.00;;;16.50;99.90;;;;;;5048339;28;20052;-69
2022/05/18 01:41:12;;;;;;;21.13;13.20;;;16.50;99.90;;;;;;5046938;28;20048;-69
2022/05/18 01:43:43;;;;;;;;;;;16.40;99.90;;;;;;5048195;28;20057;-69
2022/05/18 01:46:12;;;;;;;16.80;13.80;;;16.40;99.90;;;;;;5040810;28;19927;-69
2022/05/18 01:48:41;;;;;;;15.93;13.25;;;16.40;99.90;;;;;;5027594;28;20038;-69
2022/05/18 01:51:09;;;;;;;17.67;14.35;;;16.30;99.90;;;;;;5027353;28;20045;-68
2022/05/18 01:53:35;;;;;;;18.77;13.55;;;16.20;99.90;;;;;;5027883;28;20490;-69
2022/05/18 01:56:02;;;;;;;17.58;13.02;;;16.20;99.90;;;;;;5046546;28;20450;-69
2022/05/18 01:58:27;;;;;;;15.35;13.00;;;16.10;99.90;;;;;;5047697;28;20167;-69
2022/05/18 02:00:54;;;;;;;18.40;14.07;;;16.10;99.90;;;;;;5046805;28;20044;-69
2022/05/18 02:03:21;;;;;;;19.92;13.82;;;16.00;99.90;;;;;;5044977;28;20083;-69
2022/05/18 02:05:47;;;;;;;18.53;13.63;;;16.00;99.90;;;;;;5047409;28;20517;-68
2022/05/18 02:08:14;;;;;;;22.40;13.85;;;16.00;99.90;;;;;;5045780;28;20280;-69
2022/05/18 02:10:40;;;;;;;17.80;12.55;;;16.00;99.90;;;;;;5044687;28;20057;-67
2022/05/18 02:13:06;;;;;;;18.05;13.32;;;16.00;99.90;;;;;;5042644;28;20079;-68
2022/05/18 02:15:34;;;;;;;19.45;13.70;;;16.00;99.90;;;;;;5043580;28;20041;-67
2022/05/18 02:18:00;;;;;;;;;;;16.00;99.90;;;;;;5041702;28;20060;-68
2022/05/18 02:20:25;;;;;;;21.55;14.30;;;16.00;99.90;;;;;;5043561;28;20400;-67
2022/05/18 02:22:51;;;;;;;21.23;14.15;;;16.00;99.90;;;;;;5044522;28;20544;-67
2022/05/18 02:25:19;;;;;;;15.10;12.88;;;15.90;99.90;;;;;;5039017;28;20441;-68
2022/05/18 02:27:44;;;;;;;19.15;14.43;;;15.90;99.90;;;;;;5047201;28;20051;-67
2022/05/18 02:30:10;;;;;;;15.55;12.07;;;15.90;99.90;;;;;;5044677;28;20057;-67
2022/05/18 02:32:36;;;;;;;16.35;13.35;;;15.90;99.90;;;;;;5041322;28;20037;-67
2022/05/18 02:35:04;;;;;;;16.75;12.45;;;15.90;99.90;;;;;;5047722;28;20045;-67
2022/05/18 02:37:30;;;;;;;21.35;13.35;;;15.90;99.90;;;;;;5047411;28;20096;-68
2022/05/18 02:39:56;;;;;;;17.63;12.18;;;15.90;99.90;;;;;;5047239;28;20088;-67
2022/05/18 02:42:21;;;;;;;18.23;12.85;;;15.90;99.90;;;;;;5032335;28;20053;-67
2022/05/18 02:44:48;;;;;;;25.27;13.95;;;15.90;99.90;;;;;;5046837;28;20102;-67
2022/05/18 02:47:13;;;;;;;21.33;13.30;;;15.90;99.90;;;;;;5047480;28;20055;-68
2022/05/18 02:49:39;;;;;;;18.83;14.77;;;15.90;99.90;;;;;;5029565;28;20041;-67
2022/05/18 02:52:05;;;;;;;18.13;15.13;;;15.80;99.90;;;;;;5044607;28;20041;-68
2022/05/18 02:57:14;;;;;;;25.48;15.48;;;15.80;99.90;;;;;;5045298;28;20564;-68
2022/05/18 02:59:42;;;;;;;21.67;14.18;;;15.80;99.90;;;;;;5047273;28;20044;-68
2022/05/18 03:02:08;;;;;;;;;;;15.80;99.90;;;;;;5047810;28;20134;-68
2022/05/18 03:04:34;;;;;;;23.67;14.98;;;15.70;99.90;;;;;;5046286;28;19971;-68
2022/05/18 03:06:59;;;;;;;19.38;15.25;;;15.70;99.90;;;;;;5042793;28;20049;-68
2022/05/18 03:09:26;;;;;;;23.75;15.13;;;15.60;99.90;;;;;;5046692;28;20083;-67
2022/05/18 03:11:51;;;;;;;16.75;15.10;;;15.60;99.90;;;;;;5047419;28;20044;-68
2022/05/18 03:14:17;;;;;;;20.02;15.25;;;15.60;99.90;;;;;;5047193;28;20037;-68
2022/05/18 03:16:44;;;;;;;16.40;14.65;;;15.60;99.90;;;;;;5046337;28;20045;-68
2022/05/18 03:19:11;;;;;;;19.50;15.57;;;15.60;99.90;;;;;;5047128;28;20060;-68
2022/05/18 03:24:24;;;;;;;17.48;14.30;;;15.60;99.90;;;;;;5030619;28;20057;-68
2022/05/18 03:26:49;;;;;;;16.33;13.93;;;15.50;99.90;;;;;;5030638;28;20046;-68
2022/05/18 03:29:17;;;;;;;15.07;13.25;;;15.50;99.90;;;;;;5030154;28;20072;-68
2022/05/18 03:31:45;;;;;;;23.48;15.35;;;15.40;99.90;;;;;;5043923;28;20060;-68
2022/05/18 03:34:10;;;;;;;18.80;14.50;;;15.30;99.90;;;;;;5050827;28;20115;-68
2022/05/18 03:36:37;;;;;;;18.30;14.80;;;15.30;99.90;;;;;;5050054;28;20142;-69
2022/05/18 03:39:03;;;;;;;18.67;13.85;;;15.30;99.90;;;;;;5049973;28;20110;-68
2022/05/18 03:41:29;;;;;;;24.52;15.23;;;15.30;99.90;;;;;;5050035;28;20049;-67
2022/05/18 03:43:55;;;;;;;23.20;16.08;;;15.30;99.90;;;;;;5050088;28;20509;-68
2022/05/18 03:46:21;;;;;;;22.13;14.50;;;15.20;99.90;;;;;;5049191;28;20044;-68
2022/05/18 03:48:47;;;;;;;15.32;13.57;;;15.20;99.90;;;;;;5049369;28;20063;-68
2022/05/18 03:51:16;;;;;;;14.52;13.07;;;15.20;99.90;;;;;;5037671;28;20045;-68
2022/05/18 03:53:42;;;;;;;16.00;14.32;;;15.20;99.90;;;;;;5030196;28;20936;-68
2022/05/18 03:56:08;;;;;;;21.73;15.57;;;15.20;99.90;;;;;;5030163;28;20121;-67
2022/05/18 03:58:34;;;;;;;19.20;14.88;;;15.20;99.90;;;;;;5033091;28;20194;-68
2022/05/18 04:01:01;;;;;;;16.08;14.20;;;15.20;99.90;;;;;;5050017;28;20047;-68
2022/05/18 04:03:28;;;;;;;20.13;14.60;;;15.30;99.90;;;;;;5047834;28;20410;-68
2022/05/18 04:05:55;;;;;;;22.40;16.53;;;15.30;99.90;;;;;;5050027;28;20075;-68
2022/05/18 04:08:21;;;;;;;16.60;14.68;;;15.30;99.90;;;;;;5047974;28;20045;-68
2022/05/18 04:10:47;;;;;;;21.08;15.65;;;15.40;99.90;;;;;;5041825;28;20049;-68
2022/05/18 04:13:19;;;;;;;21.27;16.02;;;15.40;99.90;;;;;;5049561;28;20518;-68
2022/05/18 04:15:44;;;;;;;18.67;15.93;;;15.60;99.90;;;;;;5049503;28;20056;-68
2022/05/18 04:18:10;;;;;;;20.83;14.20;;;15.80;99.90;;;;;;5030590;28;20076;-68
2022/05/18 04:20:36;;;;;;;20.42;16.20;;;15.90;99.90;;;;;;5049297;28;20052;-68
2022/05/18 04:23:01;;;;;;;16.73;15.00;;;16.10;99.90;;;;;;5049437;28;20051;-68
2022/05/18 04:25:29;;;;;;;19.77;14.95;;;16.30;99.90;;;;;;5047981;28;20052;-68
2022/05/18 04:27:55;;;;;;;21.88;15.15;;;16.30;99.90;;;;;;5043693;28;20415;-68
2022/05/18 04:30:24;;;;;;;18.65;15.05;;;16.20;99.90;;;;;;5041554;28;20913;-68
2022/05/18 04:32:51;;;;;;;22.25;15.48;;;16.20;99.90;;;;;;5040688;28;20041;-70
2022/05/18 04:35:20;;;;;;;20.38;15.90;;;16.10;99.90;;;;;;5048244;28;20049;-67
2022/05/18 04:37:45;;;;;;;22.25;15.80;;;16.00;99.90;;;;;;5049581;28;20087;-67
2022/05/18 04:40:12;;;;;;;19.42;15.05;;;16.00;99.90;;;;;;5049197;28;20478;-66
2022/05/18 04:42:39;;;;;;;18.35;15.68;;;16.00;99.90;;;;;;5048096;28;20040;-66
2022/05/18 04:45:07;;;;;;;18.13;15.68;;;16.00;99.90;;;;;;5048508;28;20045;-67
2022/05/18 04:47:33;;;;;;;20.63;16.90;;;16.00;99.90;;;;;;5049291;28;20041;-66
2022/05/18 04:49:59;;;;;;;16.33;14.50;;;16.00;99.90;;;;;;5047952;28;20045;-67
2022/05/18 04:52:25;;;;;;;22.48;16.38;;;16.00;99.90;;;;;;5048010;28;20041;-66
2022/05/18 04:54:50;;;;;;;17.80;15.73;;;16.00;99.90;;;;;;5048834;28;20510;-67
2022/05/18 04:57:17;;;;;;;20.50;16.42;;;16.00;99.90;;;;;;5049061;28;20056;-66
2022/05/18 04:59:44;;;;;;;21.80;14.93;;;16.00;99.90;;;;;;5048282;28;20040;-66
2022/05/18 05:02:10;;;;;;;23.45;17.95;;;16.10;99.90;;;;;;5044422;28;20797;-67
2022/05/18 05:04:36;;;;;;;19.58;16.13;;;16.10;99.90;;;;;;5047775;28;20045;-66
2022/05/18 05:07:03;;;;;;;23.20;16.52;;;16.10;99.90;;;;;;5048392;28;20056;-67
2022/05/18 05:09:29;;;;;;;16.58;14.90;;;16.10;99.90;;;;;;5048618;28;20078;-67
2022/05/18 05:11:54;;;;;;;17.30;15.35;;;16.20;99.90;;;;;;5048070;28;20037;-66
2022/05/18 05:14:21;;;;;;;20.65;17.00;;;16.20;99.90;;;;;;5041642;28;20117;-67
2022/05/18 05:16:47;;;;;;;18.80;17.00;;;16.20;99.90;;;;;;5032320;28;20127;-67
2022/05/18 05:19:14;;;;;;;23.05;16.08;;;16.30;99.90;;;;;;5038626;28;20598;-66
2022/05/18 05:21:43;;;;;;;25.80;17.88;;;16.30;99.90;;;;;;5043744;28;20043;-66
2022/05/18 05:24:10;;;;;;;20.00;16.85;;;16.30;99.90;;;;;;5044706;28;20087;-66
2022/05/18 05:26:36;;;;;;;27.77;18.58;;;16.30;99.90;;;;;;5044925;28;20053;-67
2022/05/18 05:29:01;;;;;;;21.95;18.23;;;16.40;99.90;;;;;;5045587;28;20044;-66
2022/05/18 05:31:27;;;;;;;21.20;18.73;;;16.40;99.90;;;;;;5042295;28;20064;-66
2022/05/18 05:33:53;;;;;;;21.35;17.92;;;16.40;99.90;;;;;;5044798;28;20052;-67
2022/05/18 05:36:19;;;;;;;24.80;18.05;;;16.40;99.90;;;;;;5043204;28;20509;-66
2022/05/18 05:38:45;;;;;;;23.30;19.02;;;16.40;99.90;;;;;;5047719;28;20722;-67
2022/05/18 05:41:11;;;;;;;23.48;17.55;;;16.50;99.90;;;;;;5041766;28;20041;-66
2022/05/18 05:43:39;;;;;;;21.63;19.33;;;16.50;99.90;;;;;;5046880;28;20108;-66
2022/05/18 05:46:09;;;;;;;28.20;18.55;;;16.50;99.90;;;;;;5045552;28;20044;-67
2022/05/18 05:48:35;;;;;;;21.48;19.02;;;16.60;99.90;;;;;;5043294;28;20460;-67
2022/05/18 05:51:02;;;;;;;25.17;19.90;;;16.60;99.90;;;;;;5035357;28;20098;-66
2022/05/18 05:53:27;;;;;;;26.83;20.38;;;16.60;99.90;;;;;;5042032;28;20231;-67
2022/05/18 05:55:56;;;;;;;21.88;18.77;;;16.70;99.90;;;;;;5046939;28;20123;-66
2022/05/18 05:58:23;;;;;;;24.17;20.08;;;16.80;99.90;;;;;;5045314;28;20782;-67
2022/05/18 06:00:49;;;;;;;28.73;19.75;;;16.80;99.90;;;;;;5046397;28;20044;-67
2022/05/18 06:03:16;;;;;;;32.08;21.75;;;16.90;99.90;;;;;;5043270;28;20040;-66
2022/05/18 06:05:43;;;;;;;26.58;20.90;;;16.90;99.90;;;;;;5037611;28;20716;-67
2022/05/18 06:08:09;;;;;;;29.05;23.38;;;17.10;99.90;;;;;;5027925;28;20050;-67
2022/05/18 06:10:35;;;;;;;29.38;21.67;;;17.10;99.90;;;;;;5042953;28;20409;-67
2022/05/18 06:13:09;;;;;;;26.00;20.35;;;17.30;99.90;;;;;;5047959;28;20413;-67
2022/05/18 06:15:35;;;;;;;24.13;20.23;;;17.30;99.90;;;;;;5047004;28;20435;-66
2022/05/18 06:18:00;;;;;;;32.72;22.27;;;17.40;99.90;;;;;;5046349;28;20049;-66
2022/05/18 06:20:26;;;;;;;24.23;21.08;;;17.40;99.90;;;;;;5045444;28;20057;-67
2022/05/18 06:22:52;;;;;;;31.42;20.63;;;17.50;99.90;;;;;;5040567;28;20403;-66
2022/05/18 06:25:18;;;;;;;21.88;19.33;;;17.60;99.90;;;;;;5027302;28;20116;-66
2022/05/18 06:27:44;;;;;;;22.63;17.70;;;17.70;99.90;;;;;;5032505;28;20091;-66
2022/05/18 06:30:12;;;;;;;20.58;17.98;;;17.80;99.90;;;;;;5046913;28;20494;-66
2022/05/18 06:32:38;;;;;;;24.38;20.25;;;17.90;99.90;;;;;;5047767;28;20057;-66
2022/05/18 06:35:04;;;;;;;20.95;17.92;;;18.00;99.90;;;;;;5045970;28;20087;-66
2022/05/18 06:37:30;;;;;;;25.13;19.45;;;18.20;99.90;;;;;;5044987;28;20048;-66
2022/05/18 06:39:56;;;;;;;22.50;18.58;;;18.30;99.90;;;;;;5041149;28;20041;-66
2022/05/18 06:42:24;;;;;;;26.23;17.77;;;18.60;99.90;;;;;;5045322;28;20052;-66
2022/05/18 06:44:50;;;;;;;19.60;17.65;;;18.80;99.90;;;;;;5034608;28;20128;-66
2022/05/18 06:47:16;;;;;;;19.60;17.02;;;19.10;99.90;;;;;;5042190;28;20061;-67
2022/05/18 06:49:43;;;;;;;24.20;16.98;;;19.30;99.90;;;;;;5046376;28;20056;-67
2022/05/18 06:52:11;;;;;;;21.23;16.50;;;19.60;99.90;;;;;;5045025;28;20120;-67
2022/05/18 06:54:37;;;;;;;;;;;19.90;99.90;;;;;;5039499;28;20410;-67
2022/05/18 06:57:04;;;;;;;19.38;16.70;;;20.20;99.90;;;;;;5048368;28;19925;-67
2022/05/18 06:59:31;;;;;;;23.40;16.58;;;20.50;99.90;;;;;;5051269;28;20076;-67
2022/05/18 07:01:57;;;;;;;21.25;16.38;;;20.80;99.90;;;;;;5051051;28;20069;-67
2022/05/18 07:04:23;;;;;;;24.70;17.33;;;21.10;99.90;;;;;;5048433;28;20832;-66
2022/05/18 07:06:49;;;;;;;22.73;16.77;;;21.40;99.90;;;;;;5039296;28;20050;-67
2022/05/18 07:09:18;;;;;;;34.58;16.48;;;21.60;99.90;;;;;;5038276;28;20040;-67
2022/05/18 07:11:46;;;;;;;18.20;15.75;;;21.80;99.90;;;;;;5032893;28;20044;-67
2022/05/18 07:14:12;;;;;;;18.35;15.60;;;22.00;99.90;;;;;;5029937;28;20467;-67
2022/05/18 07:16:40;;;;;;;18.83;14.90;;;22.30;99.90;;;;;;5031054;28;20045;-67
2022/05/18 07:19:06;;;;;;;;;;;22.50;99.90;;;;;;5032246;28;20166;-67
2022/05/18 07:21:32;;;;;;;16.58;14.93;;;22.70;99.90;;;;;;5043714;28;20015;-67
2022/05/18 07:23:57;;;;;;;17.02;14.27;;;22.90;99.90;;;;;;5050658;28;20053;-67
2022/05/18 07:26:26;;;;;;;21.05;14.48;;;23.10;99.90;;;;;;5049251;28;20053;-67
2022/05/18 07:28:52;;;;;;;23.73;16.13;;;23.30;99.90;;;;;;5050388;28;20048;-67
2022/05/18 07:31:19;;;;;;;20.23;14.60;;;23.50;99.90;;;;;;5049284;28;20053;-67
2022/05/18 07:33:47;;;;;;;22.55;13.25;;;23.80;99.90;;;;;;5047483;28;20053;-66
2022/05/18 07:36:13;;;;;;;;;;;24.00;99.90;;;;;;5050250;28;20040;-67
2022/05/18 07:38:40;;;;;;;17.53;14.77;;;24.00;99.90;;;;;;5050509;28;19921;-67
2022/05/18 07:41:08;;;;;;;15.18;11.50;;;24.10;99.90;;;;;;5050033;28;20055;-67
2022/05/18 07:43:33;;;;;;;14.20;12.68;;;24.40;99.90;;;;;;5049464;28;20040;-66
2022/05/18 07:45:59;;;;;;;18.77;14.00;;;24.70;99.90;;;;;;5049542;28;20136;-67
2022/05/18 07:48:26;;;;;;;14.77;12.32;;;24.60;99.90;;;;;;5050201;28;20047;-66
2022/05/18 07:50:52;;;;;;;;;;;24.60;99.90;;;;;;5049130;28;20037;-67
2022/05/18 07:53:19;;;;;;;147.27;25.88;;;24.70;99.90;;;;;;5049648;28;19921;-67
2022/05/18 07:55:44;;;;;;;13.83;12.30;;;24.80;99.90;;;;;;5048683;28;20049;-66
2022/05/18 07:58:13;;;;;;;17.65;10.52;;;25.10;99.90;;;;;;5050054;28;20395;-66
2022/05/18 08:00:39;;;;;;;14.75;13.13;;;25.30;99.90;;;;;;5045316;28;20037;-66
2022/05/18 08:03:07;;;;;;;10.98;9.88;;;25.50;99.90;;;;;;5049869;28;20041;-67
2022/05/18 08:05:33;;;;;;;13.15;11.27;;;25.70;99.90;;;;;;5047539;28;20056;-67
2022/05/18 08:08:05;;;;;;;11.55;8.93;;;25.90;99.90;;;;;;5048865;28;20041;-66
2022/05/18 08:15:59;;;;;;;14.35;10.55;;;26.30;96.50;;;;;;5049681;28;20084;-67
2022/05/18 08:18:24;;;;;;;13.55;10.77;;;26.50;98.40;;;;;;5047579;28;20491;-67
2022/05/18 08:20:50;;;;;;;15.90;11.40;;;26.80;95.90;;;;;;5039181;28;20056;-67
2022/05/18 08:23:16;;;;;;;12.65;11.00;;;26.90;92.90;;;;;;5048456;28;20659;-66
2022/05/18 08:25:46;;;;;;;17.48;10.23;;;26.90;89.10;;;;;;5049191;28;20115;-67
2022/05/18 08:28:12;;;;;;;12.10;9.07;;;26.90;84.90;;;;;;5049209;28;20088;-67
2022/05/18 08:30:39;;;;;;;13.98;9.57;;;27.00;83.20;;;;;;5049231;28;20052;-67
2022/05/18 08:33:05;;;;;;;14.23;10.85;;;27.20;77.00;;;;;;5048019;28;20464;-67
2022/05/18 08:35:31;;;;;;;14.23;9.80;;;27.20;74.30;;;;;;5049090;28;20048;-67
2022/05/18 08:37:57;;;;;;;10.43;9.50;;;27.30;77.70;;;;;;5049343;28;20402;-67
2022/05/18 08:40:28;;;;;;;15.55;9.80;;;27.40;72.90;;;;;;5045679;28;20045;-67
2022/05/18 08:43:07;;;;;;;13.88;9.65;;;27.60;69.30;;;;;;5047595;28;20136;-66
2022/05/18 08:45:36;;;;;;;18.17;9.88;;;27.60;66.80;;;;;;5037303;28;20069;-67
2022/05/18 08:48:38;;;;;;;21.77;11.27;;;27.80;70.40;;;;;;5030341;28;20134;-67
2022/05/18 08:51:11;;;;;;;11.13;9.05;;;27.80;66.10;;;;;;5048568;28;20053;-66
2022/05/18 08:54:02;;;;;;;13.18;10.75;;;27.90;68.30;;;;;;5048210;28;20120;-67
2022/05/18 08:56:40;;;;;;;16.38;10.25;;;28.00;65.20;;;;;;5036902;28;20033;-66
2022/05/18 08:59:11;;;;;;;21.65;10.93;;;28.20;64.50;;;;;;5049217;28;20053;-66
2022/05/18 09:01:46;;;;;;;15.18;11.40;;;28.30;67.60;;;;;;5041232;28;20111;-67
2022/05/18 09:04:25;;;;;;;14.25;10.32;;;28.40;64.40;;;;;;5036986;28;20155;-67
2022/05/18 09:06:51;;;;;;;19.48;10.55;;;28.50;66.40;;;;;;5038608;28;20065;-66
2022/05/18 09:10:16;;;;;;;14.80;10.32;;;28.70;66.00;;;;;;5048521;28;20071;-67
2022/05/18 09:12:47;;;;;;;10.77;9.77;;;28.80;64.30;;;;;;5045563;28;20045;-67
2022/05/18 09:15:23;;;;;;;11.88;8.70;;;29.00;65.30;;;;;;5048323;28;20033;-66
2022/05/18 09:18:00;;;;;;;13.70;9.90;;;29.10;62.30;;;;;;5039638;28;20060;-67
2022/05/18 09:20:44;;;;;;;13.18;11.95;;;29.20;63.70;;;;;;5039151;28;20049;-67
2022/05/18 09:23:54;;;;;;;13.55;9.38;;;29.30;62.20;;;;;;5045266;28;20045;-67
2022/05/18 09:26:54;;;;;;;13.90;11.43;;;29.50;64.80;;;;;;4985025;28;20128;-67
2022/05/18 09:29:44;;;;;;;21.95;12.98;;;29.50;60.20;;;;;;5038293;28;20052;-67
2022/05/18 09:32:15;;;;;;;12.95;11.65;;;29.50;60.90;;;;;;5028177;28;20060;-67
2022/05/18 09:35:14;;;;;;;16.65;14.55;;;29.30;61.90;;;;;;5038729;28;20048;-67
2022/05/18 09:37:47;;;;;;;19.00;14.45;;;29.30;60.40;;;;;;5030134;28;20045;-67
2022/05/18 09:40:29;;;;;;;17.33;14.82;;;29.30;61.10;;;;;;5045033;28;20048;-67
2022/05/18 09:43:21;;;;;;;16.25;12.77;;;29.30;60.40;;;;;;5036747;28;20069;-67
2022/05/18 09:45:49;;;;;;;15.27;11.85;;;29.40;61.40;;;;;;5042826;28;20045;-67
2022/05/18 09:48:28;;;;;;;15.32;11.38;;;29.30;60.00;;;;;;5047963;28;20033;-67
2022/05/18 09:50:56;;;;;;;15.15;13.13;;;29.40;60.90;;;;;;5043777;28;20037;-67
2022/05/18 09:53:22;;;;;;;12.57;10.88;;;29.50;60.00;;;;;;5045197;28;20160;-67
2022/05/18 09:55:49;;;;;;;12.30;11.02;;;29.70;59.90;;;;;;5047724;28;20128;-66
2022/05/18 09:58:21;;;;;;;14.65;12.18;;;29.80;59.80;;;;;;5047648;28;20494;-67
2022/05/18 10:00:47;;;;;;;14.50;12.40;;;30.00;60.10;;;;;;5046272;28;20103;-66
2022/05/18 10:09:15;;;;;;;13.23;11.00;;;30.00;56.90;;;;;;5047396;28;20048;-66
2022/05/18 10:11:42;;;;;;;12.23;10.88;;;30.00;56.20;;;;;;5039560;28;20509;-67
2022/05/18 10:14:14;;;;;;;17.45;12.68;;;30.10;58.30;;;;;;5044757;28;20122;-67
2022/05/18 10:16:59;;;;;;;15.48;10.85;;;30.20;57.70;;;;;;5041352;28;20053;-67
2022/05/18 10:19:45;;;;;;;10.57;9.48;;;30.40;57.20;;;;;;5039665;28;20057;-67
2022/05/18 10:22:16;;;;;;;15.63;11.40;;;30.60;57.40;;;;;;5027608;28;20072;-67
2022/05/18 10:24:57;;;;;;;17.52;12.27;;;30.60;57.50;;;;;;5040621;28;20045;-66
2022/05/18 10:27:38;;;;;;;16.13;10.32;;;30.60;55.50;;;;;;5043009;28;20050;-67
2022/05/18 10:30:14;;;;;;;12.05;10.73;;;30.60;55.30;;;;;;5039748;28;20046;-66
2022/05/18 10:32:59;;;;;;;15.10;10.98;;;30.60;55.00;;;;;;5033162;28;20092;-66
2022/05/18 10:35:52;;;;;;;11.70;10.48;;;30.60;54.30;;;;;;5048722;28;20410;-67
2022/05/18 10:38:25;;;;;;;13.25;10.10;;;30.70;54.50;;;;;;5043812;28;20045;-67
2022/05/18 10:41:01;;;;;;;15.60;11.35;;;30.80;54.90;;;;;;5050221;28;20394;-67
2022/05/18 10:43:32;;;;;;;13.83;11.77;;;30.80;55.00;;;;;;5048919;28;20040;-67
2022/05/18 10:46:20;;;;;;;14.63;13.15;;;30.90;55.30;;;;;;5043712;28;20665;-67
2022/05/18 10:48:59;;;;;;;22.33;11.77;;;30.80;54.10;;;;;;5037216;28;20179;-67
2022/05/18 10:51:51;;;;;;;17.58;10.82;;;30.90;55.00;;;;;;5043881;28;20044;-67
2022/05/18 10:54:21;;;;;;;13.40;10.13;;;30.90;55.40;;;;;;5045263;28;20126;-67
2022/05/18 10:56:47;;;;;;;14.05;12.65;;;31.10;55.30;;;;;;5048574;28;20041;-67
2022/05/18 10:59:36;;;;;;;14.05;11.25;;;31.10;54.70;;;;;;5051053;28;20103;-67
2022/05/18 11:02:28;;;;;;;24.13;13.00;;;31.20;52.10;;;;;;5049989;28;20041;-67
2022/05/18 11:05:23;;;;;;;15.75;13.15;;;30.90;53.90;;;;;;5050825;28;20041;-67
2022/05/18 11:07:49;;;;;;;15.80;13.52;;;30.70;53.60;;;;;;5050482;28;20512;-67
2022/05/18 11:10:15;;;;;;;16.85;11.75;;;30.70;54.90;;;;;;5050475;28;20059;-66
2022/05/18 11:12:50;;;;;;;17.17;15.35;;;30.90;56.00;;;;;;5050639;28;20045;-67
2022/05/18 11:15:30;;;;;;;16.70;11.32;;;31.00;54.80;;;;;;5051395;28;20056;-67
2022/05/18 11:17:59;;;;;;;19.02;14.68;;;31.20;54.20;;;;;;5048542;28;20528;-67
2022/05/18 11:20:51;;;;;;;21.90;14.30;;;31.10;53.70;;;;;;5041684;28;20055;-67
2022/05/18 11:23:43;;;;;;;23.40;16.08;;;31.10;53.60;;;;;;5044269;28;20637;-66
2022/05/18 11:26:30;;;;;;;18.48;11.98;;;31.10;54.40;;;;;;5042543;28;20061;-67
2022/05/18 11:29:20;;;;;;;16.85;15.20;;;31.30;55.60;;;;;;5048544;28;20033;-66
2022/05/18 11:31:57;;;;;;;14.68;12.23;;;31.50;54.70;;;;;;5050237;28;20045;-66
2022/05/18 11:34:49;;;;;;;16.73;12.25;;;31.50;52.90;;;;;;5049269;28;20533;-67
2022/05/18 11:37:20;;;;;;;18.20;14.70;;;31.40;52.00;;;;;;5040500;28;20989;-66
2022/05/18 11:40:31;;;;;;;24.00;15.27;;;31.40;54.30;;;;;;5045110;28;20088;-67
2022/05/18 11:43:29;;;;;;;28.63;20.10;;;31.50;53.10;;;;;;5002939;28;20038;-67
2022/05/18 11:46:07;;;;;;;31.65;18.27;;;31.50;53.30;;;;;;5041446;28;20163;-67
2022/05/18 11:48:42;;;;;;;19.05;14.73;;;31.40;53.80;;;;;;5040568;28;20518;-67
2022/05/18 11:51:27;;;;;;;18.77;13.70;;;31.60;53.00;;;;;;5041688;28;20042;-66
2022/05/18 11:54:33;;;;;;;20.00;15.40;;;31.60;54.90;;;;;;5029504;28;20411;-66
2022/05/18 11:57:19;;;;;;;;;;;31.40;52.90;;;;;;5047858;28;20489;-67
2022/05/18 11:59:57;;;;;;;18.58;16.50;;;31.20;52.70;;;;;;5041900;28;20536;-67
2022/05/18 12:02:32;;;;;;;22.50;18.25;;;31.20;53.70;;;;;;5033334;28;20056;-67
2022/05/18 12:05:16;;;;;;;19.92;14.95;;;30.90;53.00;;;;;;5047777;28;20056;-66
2022/05/18 12:08:27;;;;;;;16.33;14.43;;;30.90;53.80;;;;;;5050160;28;20059;-66
2022/05/18 12:11:14;;;;;;;20.70;15.65;;;31.10;53.60;;;;;;5043951;28;20037;-66
2022/05/18 12:14:15;;;;;;;28.50;14.32;;;31.00;53.60;;;;;;5029778;28;20126;-67
2022/05/18 12:17:07;;;;;;;18.58;14.50;;;31.10;53.00;;;;;;5015408;28;20064;-67
2022/05/18 12:19:51;;;;;;;14.07;12.63;;;31.20;53.10;;;;;;5029477;28;20049;-67
2022/05/18 12:22:26;;;;;;;17.17;13.88;;;31.20;53.10;;;;;;5032658;28;20110;-67
2022/05/18 12:24:53;;;;;;;20.33;15.52;;;31.20;52.70;;;;;;5046128;28;20064;-68
2022/05/18 12:27:21;;;;;;;16.48;14.02;;;31.10;52.10;;;;;;5047870;28;20051;-67
2022/05/18 12:29:52;;;;;;;16.15;12.45;;;31.00;52.80;;;;;;5048741;28;20049;-69
2022/05/18 12:32:19;;;;;;;21.50;15.05;;;30.80;52.70;;;;;;5047923;28;20132;-70
2022/05/18 12:35:11;;;;;;;16.08;12.93;;;30.70;52.30;;;;;;5048708;28;20032;-69
2022/05/18 12:37:52;;;;;;;17.33;11.88;;;30.50;51.90;;;;;;5049462;28;20053;-70
2022/05/18 12:41:00;;;;;;;15.05;11.10;;;30.20;52.10;;;;;;5048149;28;20084;-69
2022/05/18 12:43:44;;;;;;;15.63;11.15;;;30.10;51.90;;;;;;5047855;28;20135;-70
2022/05/18 12:46:15;;;;;;;15.48;10.93;;;29.90;53.00;;;;;;5049077;28;20063;-70
2022/05/18 12:48:47;;;;;;;23.98;16.25;;;30.00;53.30;;;;;;5048416;28;20040;-70
2022/05/18 12:51:27;;;;;;;18.85;12.57;;;29.90;53.20;;;;;;5048442;28;20049;-69
2022/05/18 12:54:11;;;;;;;14.30;10.50;;;29.80;53.80;;;;;;5048533;28;20506;-70
2022/05/18 12:56:37;;;;;;;18.65;13.88;;;29.90;53.80;;;;;;5048455;28;20569;-70
2022/05/18 12:59:22;;;;;;;14.57;11.65;;;29.70;54.40;;;;;;5047639;28;20132;-69
2022/05/18 13:01:58;;;;;;;12.52;10.63;;;29.70;55.00;;;;;;5049160;28;20068;-69
2022/05/18 13:04:24;;;;;;;17.30;10.15;;;29.50;55.10;;;;;;5047457;28;20102;-69
2022/05/18 13:07:17;;;;;;;9.70;8.77;;;29.50;55.60;;;;;;5047839;28;20044;-70
2022/05/18 13:09:45;;;;;;;11.02;8.73;;;29.40;56.40;;;;;;5048135;28;20064;-70